Port Chalmers, New Zealand
Current Conditions -  °F | °C
As of 6:00 PM on Sunday 26 Oct 2014 (Local Time) from NZCH Reporting Station
Clear Clear  
Wind Chill: 55°   Ceiling: Unl
Heat Index: 55°   Visibility: 6mi
Dew Point: 46°   Wind: 18mph
Humidity: 72%   Direction: 190°S
Pressure: 29.74"   Gusts: NA
Location:  45.82°S, 170.62°E
Report Text: NZCH 260500Z AUTO 19016KT 9999 NCD 13/08 Q1007 NOSIG
Loading
Personal Weather Stations






























Interactive Weather Map
Tropical Storm Tracking
New forecast layout! Learn more

10-Day Weather Forecast

Advertisements
Track Severe Weather on mobile